MDAB

Arroyo Barril International Airport

Airport
ICAO code
MDAB
IATA Code
EPS
Summary
ICAO Region
CARSAM
ICAO Territory
Location

Los Robalos, Samaná Province

Serving
Samaná
Elevation
57 ft
Coordinates
19° 12' 6" N , 69° 25' 57" W
KCC
Af
Metar
Observation
MDAB 121500Z 09006KT 8000 VCSH FEW016CB SCT017 SCT300 29/26 Q1017 RERA CB/NE/S
Station
Arroyp Barril Internaional Airport
Date/Time
2022-08-12 15:00:00
Wind direction
90°
Wind speed
06 kts
Lowest cloud amount
few clouds
Temperature
29°C
Dew point
26°C
Humidity
83%
QNH
1017 hPa
Weather condition
n/a

Arroyo Barril Airport is located in the Samaná province of the Dominican Republic. The airport is used for domestic flights.

Climatology

Tropical rainforest climate (Köppen climate classification Af)

Runways

Designator Length Width Surface Rops
11/29 1167 25 ASP No/No

Airport map

Aerial View

SKYbrary Partners:

Safety knowledge contributed by: